Terminal Aerodrome Forecast
Issued by NWS

Home | Current Version | Previous Version | Text Only | Print | Product List | Glossary On
Versions: 1 2 3 4 5 6 7 8 9 10 11 12 13 14
592
FTUS45 KRIW 282055 AAA
TAFCOD
TAF AMD
KCOD 282055Z 2821/2918 01011KT P6SM VCTS SCT060CB BKN100
      TEMPO 2821/2823 01020G35KT -TSRA BKN060CB
     FM290300 35008KT P6SM SCT070 BKN100
     FM290600 VRB05KT P6SM SCT100
      AMD LTD TO CLD VIS AND WIND=

USA.gov is the U.S. government's official web portal to all federal, state and local government web resources and services.